createdAt,value
2023-07-21T00:00:16.737Z,16.68
2023-07-21T00:01:20.870Z,16.65
2023-07-21T00:02:22.526Z,16.64
2023-07-21T00:03:24.206Z,16.63
2023-07-21T00:04:28.374Z,16.63
2023-07-21T00:05:30.081Z,16.62
2023-07-21T00:06:33.925Z,16.51
2023-07-21T00:07:36.937Z,16.53
2023-07-21T00:08:39.232Z,16.53
2023-07-21T00:09:40.905Z,16.54
2023-07-21T00:10:43.903Z,16.56
2023-07-21T00:11:45.425Z,16.58
2023-07-21T00:12:50.374Z,16.60
2023-07-21T00:13:51.922Z,16.60
2023-07-21T00:14:53.518Z,16.62
2023-07-21T00:15:55.896Z,16.63
2023-07-21T00:16:57.477Z,16.62
2023-07-21T00:17:59.062Z,16.63
2023-07-21T00:19:02.067Z,16.66
2023-07-21T00:20:13.336Z,16.64
2023-07-21T00:21:15.624Z,16.63
2023-07-21T00:22:17.297Z,16.62
2023-07-21T00:23:20.833Z,16.61
2023-07-21T00:24:22.575Z,16.58
2023-07-21T00:25:24.223Z,16.59
2023-07-21T00:26:26.129Z,16.56
2023-07-21T00:27:30.656Z,16.56
2023-07-21T00:28:32.268Z,16.56
2023-07-21T00:29:33.900Z,16.55
2023-07-21T00:30:38.936Z,16.53
2023-07-21T00:31:40.710Z,16.53
2023-07-21T00:32:43.396Z,16.52
2023-07-21T00:33:45.463Z,16.50
2023-07-21T00:34:47.668Z,16.48
2023-07-21T00:35:49.444Z,16.47
2023-07-21T00:36:54.078Z,16.47
2023-07-21T00:37:59.245Z,16.45
2023-07-21T00:39:00.902Z,16.45
2023-07-21T00:40:05.820Z,16.44
2023-07-21T00:41:08.053Z,16.44
2023-07-21T00:42:10.796Z,16.43
2023-07-21T00:43:19.435Z,16.40
2023-07-21T00:44:21.082Z,16.38
2023-07-21T00:45:24.857Z,16.36
2023-07-21T00:46:30.397Z,16.34
2023-07-21T00:47:35.118Z,16.32
2023-07-21T00:48:38.642Z,16.30
2023-07-21T00:49:40.693Z,16.31
2023-07-21T00:50:47.604Z,16.28
2023-07-21T00:51:49.225Z,16.29
2023-07-21T00:52:51.279Z,16.25
2023-07-21T00:53:53.653Z,16.26
2023-07-21T00:54:55.315Z,16.26
2023-07-21T00:55:56.917Z,16.24
2023-07-21T00:56:58.839Z,16.19
2023-07-21T00:58:00.484Z,16.15
2023-07-21T00:59:02.184Z,16.12
2023-07-21T01:00:11.807Z,16.15
2023-07-21T01:01:15.718Z,16.16
2023-07-21T01:02:17.824Z,16.17
2023-07-21T01:03:20.206Z,16.18
2023-07-21T01:04:21.934Z,16.17
2023-07-21T01:05:24.787Z,16.19
2023-07-21T01:06:28.701Z,16.18
2023-07-21T01:07:33.049Z,16.17
2023-07-21T01:08:34.998Z,16.12
2023-07-21T01:09:39.705Z,16.13
2023-07-21T01:10:43.937Z,16.09
2023-07-21T01:11:45.875Z,16.04
2023-07-21T01:12:49.775Z,16.03
2023-07-21T01:13:54.244Z,16.02
2023-07-21T01:14:57.988Z,15.99
2023-07-21T01:16:02.698Z,16.01
2023-07-21T01:17:04.379Z,16.01
2023-07-21T01:18:07.022Z,16.01
2023-07-21T01:19:15.518Z,15.97
2023-07-21T01:20:19.030Z,15.95
2023-07-21T01:21:26.704Z,15.93
2023-07-21T01:22:36.663Z,15.92
2023-07-21T01:23:57.044Z,15.90
2023-07-21T01:25:14.792Z,15.88
2023-07-21T01:26:17.106Z,15.82
2023-07-21T01:27:22.732Z,15.76
2023-07-21T01:28:24.707Z,15.76
2023-07-21T01:29:26.887Z,15.75
2023-07-21T01:30:31.070Z,15.76
2023-07-21T01:31:36.267Z,15.77
2023-07-21T01:32:39.824Z,15.79
2023-07-21T01:33:44.764Z,15.82
2023-07-21T01:34:47.118Z,15.84
2023-07-21T01:35:49.432Z,15.84
2023-07-21T01:36:51.022Z,15.84
2023-07-21T01:37:53.233Z,15.86
2023-07-21T01:38:55.158Z,15.86
2023-07-21T01:39:57.382Z,15.87
2023-07-21T01:40:59.813Z,15.84
2023-07-21T01:42:03.868Z,15.87
2023-07-21T01:43:05.534Z,15.87
2023-07-21T01:44:07.319Z,15.90
2023-07-21T01:45:09.159Z,15.89
2023-07-21T01:46:13.143Z,15.90
2023-07-21T01:47:14.740Z,15.92
2023-07-21T01:48:20.982Z,15.96
2023-07-21T01:49:22.595Z,15.97
2023-07-21T01:50:25.225Z,15.98
2023-07-21T01:51:28.350Z,15.97
2023-07-21T01:52:33.760Z,15.98
2023-07-21T01:53:36.826Z,15.97
2023-07-21T01:54:46.156Z,15.98
2023-07-21T01:55:56.261Z,15.90
2023-07-21T01:57:04.103Z,15.96
2023-07-21T01:58:07.954Z,15.99
2023-07-21T01:59:11.923Z,16.01
2023-07-21T02:00:14.744Z,16.03
2023-07-21T02:01:21.088Z,16.03
2023-07-21T02:02:22.770Z,16.06
2023-07-21T02:03:24.772Z,16.08
2023-07-21T02:04:26.851Z,16.07
2023-07-21T02:05:28.617Z,16.02
2023-07-21T02:06:30.434Z,16.03
2023-07-21T02:07:31.954Z,16.04
2023-07-21T02:08:33.534Z,16.05
2023-07-21T02:09:37.562Z,16.03
2023-07-21T02:10:39.688Z,15.99
2023-07-21T02:11:51.764Z,15.97
2023-07-21T02:13:12.779Z,15.94
2023-07-21T02:14:14.728Z,15.90
2023-07-21T02:15:16.414Z,15.87
2023-07-21T02:16:18.098Z,15.88
2023-07-21T02:17:19.665Z,15.87
2023-07-21T02:18:24.187Z,15.79
2023-07-21T02:19:25.882Z,15.83
2023-07-21T02:20:27.408Z,15.84
2023-07-21T02:21:28.967Z,15.84
2023-07-21T02:22:30.628Z,15.83
2023-07-21T02:23:32.489Z,15.82
2023-07-21T02:24:36.416Z,15.80
2023-07-21T02:25:38.055Z,15.78
2023-07-21T02:26:42.043Z,15.74
2023-07-21T02:27:44.885Z,15.78
2023-07-21T02:28:46.519Z,15.80
2023-07-21T02:29:50.140Z,15.85
2023-07-21T02:31:03.524Z,15.88
2023-07-21T02:32:05.499Z,15.93
2023-07-21T02:33:07.108Z,15.94
2023-07-21T02:34:09.398Z,15.93
2023-07-21T02:35:11.100Z,15.94
2023-07-21T02:36:12.624Z,15.95
2023-07-21T02:37:14.782Z,15.90
2023-07-21T02:38:16.391Z,15.87
2023-07-21T02:39:17.945Z,15.88
2023-07-21T02:40:19.526Z,15.84
2023-07-21T02:41:23.662Z,15.85
2023-07-21T02:42:25.907Z,15.82
2023-07-21T02:43:30.780Z,15.84
2023-07-21T02:44:32.372Z,15.84
2023-07-21T02:45:36.081Z,15.85
2023-07-21T02:46:37.712Z,15.87
2023-07-21T02:47:40.337Z,15.90
2023-07-21T02:48:42.121Z,15.92
2023-07-21T02:49:44.239Z,15.96
2023-07-21T02:50:52.231Z,16.01
2023-07-21T02:51:54.885Z,16.04
2023-07-21T02:52:56.793Z,16.08
2023-07-21T02:53:58.449Z,16.13
2023-07-21T02:54:59.996Z,16.13
2023-07-21T02:56:04.736Z,16.15
2023-07-21T02:57:13.027Z,16.16
2023-07-21T02:58:16.432Z,16.17
2023-07-21T02:59:18.508Z,16.17
2023-07-21T03:00:22.791Z,16.17
2023-07-21T03:01:35.840Z,16.18
2023-07-21T03:02:42.578Z,16.21
2023-07-21T03:03:45.553Z,16.23
2023-07-21T03:04:51.131Z,16.23
2023-07-21T03:05:53.117Z,16.26
2023-07-21T03:06:58.137Z,16.27
2023-07-21T03:08:00.170Z,16.29
2023-07-21T03:09:04.982Z,16.32
2023-07-21T03:10:07.611Z,16.34
2023-07-21T03:11:15.128Z,16.36
2023-07-21T03:12:35.130Z,16.37
2023-07-21T03:13:42.596Z,16.32
2023-07-21T03:14:46.570Z,16.32
2023-07-21T03:15:48.608Z,16.28
2023-07-21T03:16:55.351Z,16.25
2023-07-21T03:17:57.628Z,16.26
2023-07-21T03:19:03.101Z,16.27
2023-07-21T03:20:16.224Z,16.26
2023-07-21T03:21:18.220Z,16.22
2023-07-21T03:22:19.782Z,16.20
2023-07-21T03:23:22.889Z,16.17
2023-07-21T03:24:24.595Z,16.15
2023-07-21T03:25:26.559Z,16.18
2023-07-21T03:26:29.016Z,16.19
2023-07-21T03:27:32.961Z,16.21
2023-07-21T03:28:34.867Z,16.21
2023-07-21T03:29:36.783Z,16.17
2023-07-21T03:30:38.444Z,16.15
2023-07-21T03:31:52.190Z,16.15
2023-07-21T03:32:54.065Z,16.13
2023-07-21T03:33:55.732Z,16.14
2023-07-21T03:35:02.370Z,16.13
2023-07-21T03:36:05.418Z,16.15
2023-07-21T03:37:09.637Z,16.12
2023-07-21T03:38:11.942Z,16.12
2023-07-21T03:39:15.763Z,16.12
2023-07-21T03:40:19.967Z,16.17
2023-07-21T03:41:23.880Z,16.22
2023-07-21T03:42:27.569Z,16.27
2023-07-21T03:43:29.141Z,16.29
2023-07-21T03:44:30.916Z,16.31
2023-07-21T03:45:32.840Z,16.33
2023-07-21T03:46:34.489Z,16.37
2023-07-21T03:47:41.070Z,16.39
2023-07-21T03:48:44.299Z,16.42
2023-07-21T03:49:48.226Z,16.45
2023-07-21T03:50:49.749Z,16.48
2023-07-21T03:51:51.408Z,16.49
2023-07-21T03:52:54.204Z,16.43
2023-07-21T03:53:59.303Z,16.34
2023-07-21T03:55:01.721Z,16.31
2023-07-21T03:56:04.625Z,16.27
2023-07-21T03:57:08.429Z,16.30
2023-07-21T03:58:10.116Z,16.28
2023-07-21T03:59:11.704Z,16.23
2023-07-21T04:00:13.544Z,16.20
2023-07-21T04:01:17.805Z,16.19
2023-07-21T04:02:19.907Z,16.18
2023-07-21T04:03:21.566Z,16.18
2023-07-21T04:04:23.529Z,16.17
2023-07-21T04:05:25.896Z,16.16
2023-07-21T04:06:27.794Z,16.14
2023-07-21T04:07:29.629Z,16.10
2023-07-21T04:08:31.924Z,16.09
2023-07-21T04:09:33.569Z,16.06
2023-07-21T04:10:41.064Z,16.00
2023-07-21T04:11:43.041Z,16.07
2023-07-21T04:12:45.745Z,16.10
2023-07-21T04:13:47.376Z,16.09
2023-07-21T04:14:48.896Z,16.09
2023-07-21T04:15:52.902Z,16.12
2023-07-21T04:16:55.265Z,16.15
2023-07-21T04:17:57.050Z,16.16
2023-07-21T04:18:58.675Z,16.12
2023-07-21T04:20:00.374Z,16.10
2023-07-21T04:21:01.908Z,16.07
2023-07-21T04:22:04.158Z,15.98
2023-07-21T04:23:05.821Z,15.98
2023-07-21T04:24:11.695Z,15.99
2023-07-21T04:25:13.418Z,16.01
2023-07-21T04:26:17.111Z,16.04
2023-07-21T04:27:21.584Z,16.06
2023-07-21T04:28:23.579Z,16.08
2023-07-21T04:29:35.378Z,16.09
2023-07-21T04:30:40.976Z,16.08
2023-07-21T04:31:42.777Z,15.99
2023-07-21T04:32:47.591Z,15.90
2023-07-21T04:33:50.315Z,15.88
2023-07-21T04:34:55.191Z,15.89
2023-07-21T04:35:56.816Z,15.89
2023-07-21T04:37:02.034Z,15.87
2023-07-21T04:38:09.704Z,15.86
2023-07-21T04:39:17.729Z,15.83
2023-07-21T04:40:21.436Z,15.78
2023-07-21T04:41:26.200Z,15.75
2023-07-21T04:42:27.936Z,15.77
2023-07-21T04:43:29.441Z,15.81
2023-07-21T04:44:31.014Z,15.84
2023-07-21T04:45:33.866Z,15.84
2023-07-21T04:46:44.888Z,15.87
2023-07-21T04:47:50.979Z,15.84
2023-07-21T04:48:58.815Z,15.85
2023-07-21T04:50:15.920Z,15.82
2023-07-21T04:51:17.546Z,15.67
2023-07-21T04:52:21.924Z,15.70
2023-07-21T04:53:23.887Z,15.74
2023-07-21T04:54:25.797Z,15.69
2023-07-21T04:55:28.038Z,15.63
2023-07-21T04:56:30.655Z,15.63
2023-07-21T04:57:32.906Z,15.65
2023-07-21T04:58:34.901Z,15.65
2023-07-21T04:59:36.481Z,15.65
2023-07-21T05:00:38.033Z,15.65
2023-07-21T05:01:39.862Z,15.65
2023-07-21T05:02:41.722Z,15.55
2023-07-21T05:03:44.146Z,15.51
2023-07-21T05:04:47.318Z,15.38
2023-07-21T05:05:49.358Z,15.38
2023-07-21T05:06:51.391Z,15.40
2023-07-21T05:07:55.884Z,15.43
2023-07-21T05:08:59.950Z,15.38
2023-07-21T05:10:01.585Z,15.37
2023-07-21T05:11:10.343Z,15.20
2023-07-21T05:12:13.131Z,15.14
2023-07-21T05:13:30.487Z,15.17
2023-07-21T05:14:47.275Z,15.11
2023-07-21T05:16:10.311Z,15.07
2023-07-21T05:17:32.363Z,14.98
2023-07-21T05:19:02.923Z,14.83
2023-07-21T05:20:29.335Z,14.84
2023-07-21T05:21:43.941Z,14.79
2023-07-21T05:23:05.767Z,14.87
2023-07-21T05:24:25.973Z,14.82
2023-07-21T05:25:27.746Z,14.94
2023-07-21T05:26:29.539Z,15.02
2023-07-21T05:27:31.134Z,15.01
2023-07-21T05:28:36.278Z,15.11
2023-07-21T05:29:38.155Z,15.18
2023-07-21T05:30:43.596Z,15.24
2023-07-21T05:31:47.133Z,15.23
2023-07-21T05:32:58.243Z,15.20
2023-07-21T05:34:02.965Z,15.26
2023-07-21T05:35:10.655Z,15.33
2023-07-21T05:36:13.938Z,15.38
2023-07-21T05:37:15.597Z,15.41
2023-07-21T05:38:18.315Z,15.44
2023-07-21T05:39:20.589Z,15.46
2023-07-21T05:40:22.225Z,15.46
2023-07-21T05:41:24.420Z,15.50
2023-07-21T05:42:26.008Z,15.54
2023-07-21T05:43:29.770Z,15.61
2023-07-21T05:44:34.829Z,15.66
2023-07-21T05:45:42.526Z,15.66
2023-07-21T05:46:45.995Z,15.71
2023-07-21T05:48:51.393Z,15.54
2023-07-21T05:49:57.199Z,15.55
2023-07-21T05:50:59.602Z,15.61
2023-07-21T05:52:01.196Z,15.65
2023-07-21T05:53:06.620Z,15.70
2023-07-21T05:54:08.392Z,15.76
2023-07-21T05:55:12.340Z,15.80
2023-07-21T05:56:14.378Z,15.83
2023-07-21T05:57:28.091Z,15.87
2023-07-21T05:58:29.775Z,15.90
2023-07-21T05:59:34.385Z,15.92
2023-07-21T06:00:38.115Z,15.94
2023-07-21T06:01:40.226Z,15.96
2023-07-21T06:02:42.308Z,15.96
2023-07-21T06:03:45.924Z,15.98
2023-07-21T06:04:49.684Z,16.00
2023-07-21T06:06:07.970Z,15.90
2023-07-21T06:07:28.109Z,15.80
2023-07-21T06:08:52.857Z,15.83
2023-07-21T06:10:09.571Z,15.92
2023-07-21T06:11:30.245Z,16.09
2023-07-21T06:12:50.203Z,16.19
2023-07-21T06:14:17.914Z,16.35
2023-07-21T06:15:48.780Z,16.55
2023-07-21T06:17:06.408Z,16.62
2023-07-21T06:18:08.460Z,16.70
2023-07-21T06:19:10.076Z,16.74
2023-07-21T06:20:13.632Z,16.80
2023-07-21T06:21:17.745Z,16.81
2023-07-21T06:22:23.217Z,16.81
2023-07-21T06:23:27.363Z,16.75
2023-07-21T06:24:29.018Z,16.75
2023-07-21T06:25:30.742Z,16.77
2023-07-21T06:26:40.619Z,16.77
2023-07-21T06:27:45.435Z,16.69
2023-07-21T06:28:48.180Z,16.74
2023-07-21T06:29:52.662Z,16.76
2023-07-21T06:30:59.059Z,16.76
2023-07-21T06:32:20.428Z,16.76
2023-07-21T06:33:43.447Z,16.70
2023-07-21T06:35:20.469Z,16.70
2023-07-21T06:36:32.497Z,16.72
2023-07-21T06:38:03.135Z,16.69
2023-07-21T06:39:17.773Z,16.65
2023-07-21T06:40:29.583Z,16.58
2023-07-21T06:42:03.291Z,16.41
2023-07-21T06:43:20.222Z,16.30
2023-07-21T06:44:36.184Z,16.29
2023-07-21T06:45:45.684Z,16.38
2023-07-21T06:46:59.691Z,16.40
2023-07-21T06:48:24.279Z,16.39
2023-07-21T06:49:39.949Z,16.37
2023-07-21T06:50:53.136Z,16.31
2023-07-21T06:51:55.062Z,16.27
2023-07-21T06:52:59.554Z,16.25
2023-07-21T06:54:01.189Z,16.25
2023-07-21T06:55:05.696Z,16.20
2023-07-21T06:56:08.201Z,16.08
2023-07-21T06:57:11.334Z,16.13
2023-07-21T06:58:15.414Z,16.13
2023-07-21T06:59:17.710Z,16.18
2023-07-21T07:00:19.392Z,16.22
2023-07-21T07:01:23.667Z,16.22
2023-07-21T07:02:26.155Z,16.14
2023-07-21T07:03:30.886Z,16.19
2023-07-21T07:04:34.498Z,16.21
2023-07-21T07:05:38.510Z,16.27
2023-07-21T07:06:40.182Z,16.31
2023-07-21T07:07:41.812Z,16.32
2023-07-21T07:08:43.414Z,16.41
2023-07-21T07:09:47.546Z,16.46
2023-07-21T07:10:51.652Z,16.53
2023-07-21T07:11:53.272Z,16.62
2023-07-21T07:12:54.863Z,16.64
2023-07-21T07:13:56.413Z,16.70
2023-07-21T07:15:00.340Z,16.70
2023-07-21T07:16:02.076Z,16.74
2023-07-21T07:17:03.672Z,16.74
2023-07-21T07:18:05.490Z,16.77
2023-07-21T07:19:09.736Z,16.82
2023-07-21T07:20:13.100Z,16.90
2023-07-21T07:21:16.893Z,16.99
2023-07-21T07:22:18.998Z,17.06
2023-07-21T07:23:21.055Z,17.10
2023-07-21T07:24:22.722Z,17.10
2023-07-21T07:25:27.257Z,17.15
2023-07-21T07:26:29.103Z,17.17
2023-07-21T07:27:31.503Z,17.21
2023-07-21T07:28:33.187Z,17.25
2023-07-21T07:29:37.473Z,17.31
2023-07-21T07:30:42.114Z,17.35
2023-07-21T07:31:44.157Z,17.38
2023-07-21T07:32:45.883Z,17.48
2023-07-21T07:33:47.938Z,17.56
2023-07-21T07:34:49.925Z,17.54
2023-07-21T07:35:53.951Z,17.60
2023-07-21T07:36:56.132Z,17.72
2023-07-21T07:37:57.756Z,17.78
2023-07-21T07:38:59.430Z,17.83
2023-07-21T07:40:01.074Z,17.90
2023-07-21T07:41:07.128Z,18.00
2023-07-21T07:42:13.142Z,18.12
2023-07-21T07:43:15.667Z,18.26
2023-07-21T07:44:17.486Z,18.19
2023-07-21T07:45:20.841Z,18.36
2023-07-21T07:46:22.472Z,18.34
2023-07-21T07:47:25.000Z,18.46
2023-07-21T07:48:26.741Z,18.60
2023-07-21T07:49:29.307Z,18.68
2023-07-21T07:50:30.818Z,18.74
2023-07-21T07:51:32.382Z,18.87
2023-07-21T07:52:34.113Z,18.96
2023-07-21T07:53:36.597Z,19.00
2023-07-21T07:54:38.186Z,18.98
2023-07-21T07:55:40.163Z,19.06
2023-07-21T07:56:42.021Z,19.17
2023-07-21T07:57:48.575Z,19.23
2023-07-21T07:58:51.025Z,19.25
2023-07-21T07:59:52.603Z,19.10
2023-07-21T08:00:58.379Z,19.10
2023-07-21T08:02:00.164Z,18.85
2023-07-21T08:03:05.412Z,19.17
2023-07-21T08:04:07.834Z,19.44
2023-07-21T08:05:09.837Z,19.60
2023-07-21T08:06:12.281Z,19.70
2023-07-21T08:07:13.884Z,19.76
2023-07-21T08:08:15.546Z,19.80
2023-07-21T08:09:17.476Z,19.84
2023-07-21T08:10:19.043Z,19.84
2023-07-21T08:11:20.639Z,19.89
2023-07-21T08:12:22.252Z,19.78
2023-07-21T08:13:23.864Z,19.87
2023-07-21T08:14:25.491Z,19.96
2023-07-21T08:15:27.087Z,19.96
2023-07-21T08:16:28.898Z,20.06
2023-07-21T08:17:30.797Z,20.14
2023-07-21T08:18:32.508Z,20.14
2023-07-21T08:19:34.066Z,20.17
2023-07-21T08:20:37.556Z,20.24
2023-07-21T08:21:39.147Z,20.28
2023-07-21T08:22:40.712Z,20.05
2023-07-21T08:23:42.295Z,20.16
2023-07-21T08:24:43.874Z,20.16
2023-07-21T08:25:45.443Z,20.27
2023-07-21T08:26:49.070Z,20.30
2023-07-21T08:27:53.693Z,20.41
2023-07-21T08:28:56.854Z,20.41
2023-07-21T08:29:58.645Z,20.45
2023-07-21T08:31:00.282Z,20.52
2023-07-21T08:32:02.370Z,20.58
2023-07-21T08:33:05.678Z,20.62
2023-07-21T08:34:09.656Z,20.65
2023-07-21T08:35:11.501Z,20.60
2023-07-21T08:36:13.052Z,20.59
2023-07-21T08:37:14.565Z,20.66
2023-07-21T08:38:16.092Z,20.64
2023-07-21T08:39:18.688Z,20.66
2023-07-21T08:40:24.043Z,20.58
2023-07-21T08:41:26.375Z,20.53
2023-07-21T08:42:28.671Z,20.45
2023-07-21T08:43:32.791Z,20.26
2023-07-21T08:44:35.956Z,20.22
2023-07-21T08:45:37.814Z,20.04
2023-07-21T08:46:39.456Z,19.91
2023-07-21T08:47:41.056Z,19.90
2023-07-21T08:48:43.692Z,19.83
2023-07-21T08:49:46.182Z,19.73
2023-07-21T08:50:53.499Z,19.70
2023-07-21T08:51:55.192Z,19.62
2023-07-21T08:52:56.730Z,19.61
2023-07-21T08:53:58.312Z,19.60
2023-07-21T08:55:01.092Z,19.58
2023-07-21T08:56:02.971Z,19.51
2023-07-21T08:57:04.847Z,19.42
2023-07-21T08:58:07.282Z,19.34
2023-07-21T08:59:08.844Z,19.23
2023-07-21T09:00:11.775Z,19.16
2023-07-21T09:01:13.458Z,19.08
2023-07-21T09:02:14.986Z,19.14
2023-07-21T09:03:23.912Z,19.09
2023-07-21T09:04:26.349Z,18.91
2023-07-21T09:05:28.159Z,18.76
2023-07-21T09:06:29.950Z,18.79
2023-07-21T09:07:31.887Z,18.64
2023-07-21T09:08:34.767Z,18.68
2023-07-21T09:09:38.760Z,18.58
2023-07-21T09:10:42.766Z,18.49
2023-07-21T09:11:46.845Z,18.39
2023-07-21T09:12:50.796Z,18.34
2023-07-21T09:13:54.223Z,18.34
2023-07-21T09:14:55.784Z,18.33
2023-07-21T09:15:58.231Z,18.29
2023-07-21T09:16:59.920Z,18.23
2023-07-21T09:18:02.306Z,18.04
2023-07-21T09:19:06.627Z,17.86
2023-07-21T09:20:09.317Z,17.81
2023-07-21T09:21:19.785Z,17.84
2023-07-21T09:22:24.672Z,17.85
2023-07-21T09:23:27.812Z,17.86
2023-07-21T09:24:29.465Z,17.86
2023-07-21T09:25:33.177Z,17.87
2023-07-21T09:26:34.819Z,17.95
2023-07-21T09:27:36.667Z,17.98
2023-07-21T09:28:42.222Z,18.08
2023-07-21T09:29:44.352Z,18.20
2023-07-21T09:30:49.100Z,18.34
2023-07-21T09:31:50.815Z,18.50
2023-07-21T09:32:59.471Z,18.62
2023-07-21T09:34:12.886Z,18.77
2023-07-21T09:35:14.722Z,18.98
2023-07-21T09:36:17.302Z,19.07
2023-07-21T09:37:18.893Z,19.18
2023-07-21T09:38:22.196Z,19.23
2023-07-21T09:39:23.996Z,19.33
2023-07-21T09:40:34.097Z,19.46
2023-07-21T09:41:35.754Z,19.48
2023-07-21T09:42:40.779Z,19.60
2023-07-21T09:43:43.046Z,19.69
2023-07-21T09:44:44.640Z,19.75
2023-07-21T09:45:46.425Z,19.87
2023-07-21T09:46:48.202Z,19.93
2023-07-21T09:47:53.001Z,19.96
2023-07-21T09:48:57.781Z,19.97
2023-07-21T09:50:02.326Z,19.95
2023-07-21T09:51:05.269Z,20.02
2023-07-21T09:52:07.277Z,20.02
2023-07-21T09:53:10.140Z,19.93
2023-07-21T09:54:15.659Z,19.98
2023-07-21T09:55:18.292Z,20.03
2023-07-21T09:56:23.618Z,20.03
2023-07-21T09:57:30.525Z,20.16
2023-07-21T09:58:35.108Z,20.24
2023-07-21T09:59:38.881Z,20.34
2023-07-21T10:00:41.350Z,20.39
2023-07-21T10:01:44.155Z,20.40
2023-07-21T10:02:49.178Z,20.55
2023-07-21T10:03:51.368Z,20.37
2023-07-21T10:04:53.712Z,20.50
2023-07-21T10:05:58.218Z,20.60
2023-07-21T10:07:00.259Z,20.68
2023-07-21T10:08:04.828Z,20.75
2023-07-21T10:09:11.670Z,20.70
2023-07-21T10:10:13.820Z,20.73
2023-07-21T10:11:15.473Z,20.72
2023-07-21T10:12:18.561Z,20.72
2023-07-21T10:13:21.247Z,20.73
2023-07-21T10:14:35.422Z,20.75
2023-07-21T10:15:41.663Z,20.76
2023-07-21T10:16:43.342Z,20.75
2023-07-21T10:17:56.075Z,20.74
2023-07-21T10:19:00.595Z,20.74
2023-07-21T10:20:08.301Z,20.68
2023-07-21T10:21:09.931Z,20.63
2023-07-21T10:22:15.246Z,20.62
2023-07-21T10:23:17.733Z,20.60
2023-07-21T10:24:23.337Z,20.66
2023-07-21T10:25:25.331Z,20.65
2023-07-21T10:26:27.008Z,20.50
2023-07-21T10:27:31.227Z,20.52
2023-07-21T10:28:35.168Z,20.43
2023-07-21T10:29:38.068Z,20.50
2023-07-21T10:30:39.800Z,20.52
2023-07-21T10:31:51.023Z,20.56
2023-07-21T10:32:53.699Z,20.59
2023-07-21T10:34:04.423Z,20.62
2023-07-21T10:35:09.542Z,20.51
2023-07-21T10:36:15.315Z,20.44
2023-07-21T10:37:20.088Z,20.53
2023-07-21T10:38:25.544Z,20.59
2023-07-21T10:39:32.176Z,20.45
2023-07-21T10:40:33.745Z,20.54
2023-07-21T10:41:37.749Z,20.59
2023-07-21T10:42:41.235Z,20.70
2023-07-21T10:43:43.164Z,20.73
2023-07-21T10:44:48.109Z,20.75
2023-07-21T10:45:54.958Z,20.81
2023-07-21T10:46:59.346Z,20.89
2023-07-21T10:48:14.200Z,20.98
2023-07-21T10:49:16.681Z,20.93
2023-07-21T10:50:18.344Z,20.94
2023-07-21T10:51:20.126Z,20.95
2023-07-21T10:52:22.706Z,20.94
2023-07-21T10:53:24.494Z,21.05
2023-07-21T10:54:28.450Z,20.93
2023-07-21T10:55:30.079Z,20.91
2023-07-21T10:56:33.813Z,21.03
2023-07-21T10:57:36.616Z,20.95
2023-07-21T10:58:38.190Z,20.95
2023-07-21T10:59:40.023Z,21.09
2023-07-21T11:00:47.557Z,21.05
2023-07-21T11:01:55.272Z,21.08
2023-07-21T11:02:59.512Z,21.28
2023-07-21T11:04:01.322Z,21.37
2023-07-21T11:05:03.013Z,21.52
2023-07-21T11:06:04.595Z,21.61
2023-07-21T11:07:06.403Z,21.52
2023-07-21T11:08:11.322Z,21.11
2023-07-21T11:09:13.452Z,21.42
2023-07-21T11:10:15.840Z,21.45
2023-07-21T11:11:17.616Z,21.39
2023-07-21T11:12:19.285Z,21.55
2023-07-21T11:13:24.003Z,21.50
2023-07-21T11:14:26.807Z,21.32
2023-07-21T11:15:28.485Z,21.17
2023-07-21T11:16:30.048Z,21.31
2023-07-21T11:17:34.045Z,21.11
2023-07-21T11:18:35.747Z,21.23
2023-07-21T11:19:37.244Z,21.34
2023-07-21T11:20:38.738Z,21.43
2023-07-21T11:21:40.901Z,21.39
2023-07-21T11:22:42.937Z,21.35
2023-07-21T11:23:44.549Z,21.33
2023-07-21T11:25:06.107Z,21.29
2023-07-21T11:26:09.211Z,21.36
2023-07-21T11:27:12.349Z,21.38
2023-07-21T11:28:15.741Z,21.02
2023-07-21T11:29:17.758Z,20.95
2023-07-21T11:30:19.990Z,20.91
2023-07-21T11:31:22.700Z,20.91
2023-07-21T11:32:26.524Z,21.11
2023-07-21T11:33:43.225Z,21.05
2023-07-21T11:34:44.865Z,21.11
2023-07-21T11:35:47.121Z,21.12
2023-07-21T11:36:50.252Z,21.11
2023-07-21T11:37:52.469Z,21.18
2023-07-21T11:39:05.672Z,21.04
2023-07-21T11:40:29.960Z,21.17
2023-07-21T11:41:47.453Z,21.26
2023-07-21T11:42:50.271Z,21.26
2023-07-21T11:43:51.904Z,21.21
2023-07-21T11:44:54.189Z,20.84
2023-07-21T11:45:56.980Z,21.09
2023-07-21T11:47:06.630Z,21.14
2023-07-21T11:48:14.585Z,21.23
2023-07-21T11:49:16.236Z,21.11
2023-07-21T11:50:19.213Z,21.26
2023-07-21T11:51:23.914Z,21.29
2023-07-21T11:52:27.887Z,21.43
2023-07-21T11:53:44.533Z,21.46
2023-07-21T11:54:46.897Z,21.28
2023-07-21T11:55:48.534Z,21.33
2023-07-21T11:56:50.771Z,21.43
2023-07-21T11:57:54.433Z,21.20
2023-07-21T11:58:58.309Z,21.26
2023-07-21T12:00:05.836Z,21.20
2023-07-21T12:01:10.466Z,21.33
2023-07-21T12:02:15.054Z,21.45
2023-07-21T12:03:19.585Z,21.36
2023-07-21T12:04:22.451Z,21.32
2023-07-21T12:05:25.486Z,21.66
2023-07-21T12:06:30.666Z,21.84
2023-07-21T12:07:32.788Z,22.03
2023-07-21T12:08:34.329Z,22.26
2023-07-21T12:09:39.430Z,22.46
2023-07-21T12:10:41.318Z,22.64
2023-07-21T12:11:43.336Z,22.71
2023-07-21T12:12:44.942Z,22.80
2023-07-21T12:13:46.465Z,22.60
2023-07-21T12:14:48.044Z,22.58
2023-07-21T12:15:52.162Z,22.68
2023-07-21T12:16:57.088Z,22.86
2023-07-21T12:17:59.118Z,22.98
2023-07-21T12:19:01.083Z,23.17
2023-07-21T12:20:02.666Z,23.24
2023-07-21T12:21:04.665Z,23.31
2023-07-21T12:22:07.390Z,23.33
2023-07-21T12:23:09.353Z,23.44
2023-07-21T12:24:11.030Z,23.48
2023-07-21T12:25:13.195Z,23.65
2023-07-21T12:26:14.862Z,23.29
2023-07-21T12:27:16.434Z,23.42
2023-07-21T12:28:18.205Z,23.17
2023-07-21T12:29:38.010Z,22.59
2023-07-21T12:30:41.681Z,23.12
2023-07-21T12:31:43.458Z,23.00
2023-07-21T12:32:45.240Z,23.16
2023-07-21T12:33:50.374Z,23.31
2023-07-21T12:34:52.052Z,23.24
2023-07-21T12:35:57.132Z,23.39
2023-07-21T12:36:59.424Z,23.39
2023-07-21T12:38:01.272Z,23.32
2023-07-21T12:39:05.484Z,22.98
2023-07-21T12:40:13.118Z,23.01
2023-07-21T12:41:14.729Z,22.89
2023-07-21T12:42:16.354Z,23.04
2023-07-21T12:43:18.049Z,23.07
2023-07-21T12:44:22.720Z,23.05
2023-07-21T12:45:24.852Z,22.92
2023-07-21T12:46:26.582Z,22.95
2023-07-21T12:47:28.508Z,22.90
2023-07-21T12:48:31.833Z,22.86
2023-07-21T12:49:33.426Z,22.79
2023-07-21T12:50:35.015Z,22.73
2023-07-21T12:51:36.855Z,22.76
2023-07-21T12:52:41.483Z,22.68
2023-07-21T12:53:43.023Z,22.63
2023-07-21T12:54:46.865Z,22.64
2023-07-21T12:55:51.326Z,22.66
2023-07-21T12:56:53.103Z,22.61
2023-07-21T12:57:56.755Z,22.60
2023-07-21T12:58:58.357Z,22.67
2023-07-21T13:00:02.896Z,22.64
2023-07-21T13:01:06.292Z,22.78
2023-07-21T13:02:08.167Z,22.85
2023-07-21T13:03:09.924Z,22.91
2023-07-21T13:04:20.347Z,22.86
2023-07-21T13:05:23.992Z,22.93
2023-07-21T13:06:25.877Z,22.94
2023-07-21T13:07:27.705Z,23.05
2023-07-21T13:08:29.347Z,23.09
2023-07-21T13:09:33.376Z,23.20
2023-07-21T13:10:35.053Z,23.10
2023-07-21T13:11:39.080Z,22.81
2023-07-21T13:12:40.767Z,22.92
2023-07-21T13:13:43.123Z,23.10
2023-07-21T13:14:44.702Z,23.07
2023-07-21T13:15:46.383Z,22.92
2023-07-21T13:16:48.296Z,23.09
2023-07-21T13:17:49.952Z,23.11
2023-07-21T13:18:54.000Z,23.24
2023-07-21T13:20:00.143Z,23.26
2023-07-21T13:21:01.712Z,23.35
2023-07-21T13:22:06.540Z,23.20
2023-07-21T13:23:12.976Z,23.24
2023-07-21T13:24:25.676Z,23.34
2023-07-21T13:25:29.506Z,23.25
2023-07-21T13:26:31.230Z,23.31
2023-07-21T13:27:32.904Z,23.15
2023-07-21T13:28:34.470Z,23.14
2023-07-21T13:29:36.058Z,23.19
2023-07-21T13:30:37.575Z,23.27
2023-07-21T13:31:39.247Z,23.26
2023-07-21T13:32:40.927Z,23.29
2023-07-21T13:33:47.945Z,23.11
2023-07-21T13:34:49.489Z,23.22
2023-07-21T13:35:51.120Z,23.15
2023-07-21T13:36:52.735Z,23.03
2023-07-21T13:37:54.273Z,23.23
2023-07-21T13:38:55.958Z,23.20
2023-07-21T13:39:57.604Z,23.21
2023-07-21T13:40:59.732Z,23.30
2023-07-21T13:42:01.536Z,23.45
2023-07-21T13:43:04.882Z,23.43
2023-07-21T13:44:06.508Z,23.42
2023-07-21T13:45:11.059Z,23.41
2023-07-21T13:46:12.684Z,23.56
2023-07-21T13:47:14.708Z,23.48
2023-07-21T13:48:16.366Z,23.57